Time;durP1;ratioP1;P1;durP2;ratioP2;P2;SDS_P1;SDS_P2;PMS_P1;PMS_P2;Temp;Humidity;BMP_temperature;BMP_pressure;BME280_temperature;BME280_humidity;BME280_pressure;Samples;Min_cycle;Max_cycle;Signal;HPM_P1;HPM_P2
2023/05/08 00:01:01;;;;;;;1.87;1.77;;;16.80;99.90;;;17.08;nan;100934.28;5053238;28;21272;-68
2023/05/08 00:03:28;;;;;;;2.13;1.93;;;16.80;99.90;;;17.11;nan;100934.97;5051127;28;21248;-67
2023/05/08 00:05:55;;;;;;;2.10;2.00;;;16.80;99.90;;;17.10;nan;100935.97;5051119;28;20670;-68
2023/05/08 00:08:22;;;;;;;2.70;2.50;;;16.80;99.90;;;17.07;nan;100934.44;5049452;28;20628;-67
2023/05/08 00:10:49;;;;;;;1.80;1.60;;;16.80;99.90;;;17.10;nan;100938.59;5048891;28;20639;-68
2023/05/08 00:13:16;;;;;;;2.33;2.20;;;16.80;99.90;;;17.20;nan;100944.66;5043924;28;20632;-67
2023/05/08 00:15:43;;;;;;;1.27;1.17;;;16.90;99.90;;;17.25;nan;100943.22;5051379;28;20728;-67
2023/05/08 00:18:10;;;;;;;2.40;2.20;;;16.90;99.90;;;17.23;nan;100945.19;5034689;28;20741;-67
2023/05/08 00:20:37;;;;;;;2.00;1.90;;;16.90;99.90;;;17.22;nan;100938.25;5047102;28;20636;-67
2023/05/08 00:23:04;;;;;;;2.37;2.07;;;16.90;99.90;;;17.20;nan;100934.94;5046773;28;20650;-67
2023/05/08 00:25:31;;;;;;;2.27;2.07;;;16.80;99.90;;;17.20;nan;100944.66;5043894;28;21036;-67
2023/05/08 00:27:59;;;;;;;2.23;2.13;;;16.90;99.90;;;17.21;nan;100935.75;5052605;28;20700;-68
2023/05/08 00:30:26;;;;;;;3.13;2.80;;;16.90;99.90;;;17.20;nan;100944.66;5039998;28;20635;-68
2023/05/08 00:32:53;;;;;;;2.60;2.40;;;16.80;99.90;;;17.19;nan;100941.19;5034253;28;20636;-67
2023/05/08 00:35:20;;;;;;;3.07;2.80;;;16.80;99.90;;;17.19;nan;100943.81;5048202;28;21241;-67
2023/05/08 00:37:47;;;;;;;2.57;2.47;;;16.80;99.90;;;17.22;nan;100940.06;5022340;28;20709;-67
2023/05/08 00:40:14;;;;;;;2.80;2.60;;;16.80;99.90;;;17.19;nan;100935.91;5053883;28;20640;-68
2023/05/08 00:42:42;;;;;;;2.67;2.57;;;16.90;99.90;;;17.18;nan;100936.91;5040264;28;20648;-67
2023/05/08 00:45:09;;;;;;;2.97;2.60;;;16.80;99.90;;;17.19;nan;100933.25;5047485;28;20662;-68
2023/05/08 00:47:36;;;;;;;2.27;2.17;;;16.90;99.90;;;17.17;nan;100939.66;5044745;28;21093;-67
2023/05/08 00:50:04;;;;;;;2.50;2.30;;;16.80;99.90;;;17.10;nan;100934.13;5015965;28;20625;-71
2023/05/08 00:52:32;;;;;;;2.53;2.33;;;16.80;99.90;;;17.08;nan;100935.28;5032553;28;20677;-65
2023/05/08 00:55:01;;;;;;;1.97;1.87;;;16.70;99.90;;;17.01;nan;100930.56;5031541;28;20678;-68
2023/05/08 00:57:31;;;;;;;2.60;2.40;;;16.70;99.90;;;16.95;nan;100935.59;5014766;28;20616;-66
2023/05/08 01:00:00;;;;;;;2.20;2.10;;;16.60;99.90;;;16.88;nan;100935.34;5036322;28;20608;-68
2023/05/08 01:02:30;;;;;;;2.30;2.20;;;16.50;99.90;;;16.85;nan;100930.34;5052966;28;21013;-66
2023/05/08 01:04:57;;;;;;;1.83;1.73;;;16.50;99.90;;;16.84;nan;100939.25;5025276;28;20679;-68
2023/05/08 01:07:24;;;;;;;1.90;1.80;;;16.50;99.90;;;16.79;nan;100938.81;5026867;28;20628;-68
2023/05/08 01:09:52;;;;;;;2.33;2.10;;;16.40;99.90;;;16.79;nan;100938.81;5034555;28;20652;-71
2023/05/08 01:12:37;;;;;;;1.90;1.80;;;16.50;99.90;;;16.82;nan;100937.72;5036766;28;20624;-69
2023/05/08 01:15:12;;;;;;;1.93;1.83;;;16.50;99.90;;;16.86;nan;100937.28;5047817;28;20670;-68
2023/05/08 01:17:52;;;;;;;2.37;2.23;;;16.50;99.90;;;16.86;nan;100942.56;5041832;28;20643;-66
2023/05/08 01:20:38;;;;;;;1.57;1.47;;;16.50;99.90;;;16.90;nan;100937.81;5049143;28;20626;-66
2023/05/08 01:23:59;;;;;;;1.60;1.50;;;16.50;99.90;;;16.92;nan;100939.34;5051667;28;21402;-66
2023/05/08 01:27:12;;;;;;;1.53;1.43;;;16.60;99.90;;;16.96;nan;100937.25;5013819;28;20609;-66
2023/05/08 01:30:31;;;;;;;2.07;1.87;;;16.60;99.90;;;16.96;nan;100937.25;5018246;28;20685;-68
2023/05/08 01:33:54;;;;;;;1.80;1.80;;;16.60;99.90;;;16.96;nan;100942.50;5052558;28;20632;-68
2023/05/08 01:36:54;;;;;;;2.03;1.90;;;16.60;99.90;;;16.95;nan;100951.41;5029734;28;20647;-67
2023/05/08 01:39:43;;;;;;;2.43;2.23;;;16.60;99.90;;;16.95;nan;100954.84;5047386;28;20667;-69
2023/05/08 01:42:34;;;;;;;3.00;2.80;;;16.60;99.90;;;16.95;nan;100954.84;5013387;28;20666;-68
2023/05/08 01:45:21;;;;;;;2.20;2.07;;;16.60;99.90;;;16.96;nan;100959.16;5013259;28;20999;-67
2023/05/08 01:48:04;;;;;;;3.20;2.93;;;16.60;99.90;;;16.99;nan;100952.78;5033564;28;20642;-68
2023/05/08 01:50:46;;;;;;;2.33;2.20;;;16.60;99.90;;;16.98;nan;100951.94;5033732;28;20685;-69
2023/05/08 01:53:29;;;;;;;2.60;2.47;;;16.60;99.90;;;17.02;nan;100948.03;5051493;28;20606;-68
2023/05/08 01:56:04;;;;;;;2.70;2.50;;;16.70;99.90;;;17.02;nan;100952.47;5033712;28;20655;-68
2023/05/08 01:58:34;;;;;;;2.17;1.97;;;16.70;99.90;;;17.03;nan;100954.16;5031832;28;20647;-68
2023/05/08 02:01:02;;;;;;;2.03;1.90;;;16.70;99.90;;;17.04;nan;100943.47;5031349;28;20616;-68
2023/05/08 02:03:31;;;;;;;2.23;2.13;;;16.70;99.90;;;17.05;nan;100954.84;5024212;28;21060;-68
2023/05/08 02:06:00;;;;;;;2.30;2.20;;;16.70;99.90;;;17.06;nan;100949.41;5049549;28;20667;-69
2023/05/08 02:08:29;;;;;;;2.60;2.40;;;16.70;99.90;;;17.08;nan;100957.16;5049465;28;20642;-68
2023/05/08 02:10:58;;;;;;;2.20;2.10;;;16.70;99.90;;;17.08;nan;100952.75;5049973;28;20624;-68
2023/05/08 02:13:26;;;;;;;1.97;1.90;;;16.70;99.90;;;17.10;nan;100963.13;5031308;28;21008;-68
2023/05/08 02:15:55;;;;;;;2.10;2.00;;;16.80;99.90;;;17.11;nan;100966.59;5031561;28;20740;-68
2023/05/08 02:18:24;;;;;;;4.23;3.17;;;16.70;99.90;;;17.08;nan;100963.28;5029606;28;20717;-68
2023/05/08 02:20:53;;;;;;;3.03;2.67;;;16.70;99.90;;;17.08;nan;100958.00;5022093;28;20697;-67
2023/05/08 02:23:24;;;;;;;3.13;2.83;;;16.80;99.90;;;17.11;nan;100956.06;5024616;28;20693;-68
2023/05/08 02:25:53;;;;;;;3.37;2.83;;;16.80;99.90;;;17.08;nan;100963.28;5027988;28;21043;-68
2023/05/08 02:28:22;;;;;;;3.03;2.80;;;16.70;99.90;;;17.10;nan;100959.69;5011821;28;20620;-68
2023/05/08 02:30:51;;;;;;;3.00;2.80;;;16.70;99.90;;;17.05;nan;100953.03;5010446;28;20645;-68
2023/05/08 02:33:19;;;;;;;4.23;3.80;;;16.70;99.90;;;17.01;nan;100959.56;5031953;28;20636;-68
2023/05/08 02:35:49;;;;;;;3.50;2.80;;;16.70;99.90;;;16.99;nan;100966.78;5033147;28;20709;-68
2023/05/08 02:38:20;;;;;;;6.73;3.50;;;16.60;99.90;;;16.95;nan;100962.75;5049056;28;20671;-68
2023/05/08 02:40:53;;;;;;;3.57;3.27;;;16.60;99.90;;;16.92;nan;100973.63;5046814;28;20628;-67
2023/05/08 02:43:20;;;;;;;3.87;3.47;;;16.60;99.90;;;16.94;nan;100970.81;5029291;28;20622;-68
2023/05/08 02:46:08;;;;;;;4.37;3.97;;;16.60;99.90;;;16.93;nan;100969.97;5031931;28;20667;-69
2023/05/08 02:48:50;;;;;;;3.93;3.47;;;16.60;99.90;;;16.94;nan;100965.56;5027678;28;20693;-68
2023/05/08 02:51:21;;;;;;;3.87;3.50;;;16.60;99.90;;;16.95;nan;100972.50;5032886;28;20629;-68
2023/05/08 02:54:07;;;;;;;4.53;3.60;;;16.60;99.90;;;16.94;nan;100969.03;5031527;28;20999;-68
2023/05/08 02:56:39;;;;;;;4.17;3.77;;;16.60;99.90;;;16.93;nan;100975.25;5032559;28;20627;-69
2023/05/08 02:59:14;;;;;;;4.40;3.80;;;16.60;99.90;;;16.90;nan;100970.28;5030050;28;20725;-68
2023/05/08 03:01:47;;;;;;;3.17;2.87;;;16.60;99.90;;;16.91;nan;100971.94;5047999;28;20619;-67
2023/05/08 03:04:30;;;;;;;4.17;3.77;;;16.60;99.90;;;16.93;nan;100977.06;5048599;28;20660;-68
2023/05/08 03:06:57;;;;;;;5.00;4.07;;;16.60;99.90;;;16.95;nan;100978.56;5071277;22;20686;-68
2023/05/08 03:09:32;;;;;;;3.90;3.60;;;16.60;99.90;;;16.96;nan;100974.97;5027123;28;20666;-66
2023/05/08 03:12:06;;;;;;;4.13;3.13;;;16.60;99.90;;;16.98;nan;100973.03;5031952;28;20627;-67
2023/05/08 03:14:42;;;;;;;3.87;3.20;;;16.60;99.90;;;16.99;nan;100968.59;5034969;28;20632;-67
2023/05/08 03:17:15;;;;;;;4.40;3.30;;;16.70;99.90;;;17.00;nan;100971.09;5029340;28;20655;-67
2023/05/08 03:19:46;;;;;;;5.10;3.47;;;16.70;99.90;;;16.98;nan;100967.75;5026521;28;20655;-69
2023/05/08 03:22:15;;;;;;;3.90;3.60;;;16.60;99.90;;;17.00;nan;100971.09;5029845;28;20773;-67
2023/05/08 03:24:45;;;;;;;4.77;3.53;;;16.70;99.90;;;17.01;nan;100971.94;5048541;28;20639;-67
2023/05/08 03:27:13;;;;;;;4.50;4.10;;;16.70;99.90;;;17.01;nan;100964.81;5029941;28;20687;-69
2023/05/08 03:29:42;;;;;;;4.43;4.00;;;16.70;99.90;;;16.98;nan;100970.41;5031869;28;20636;-66
2023/05/08 03:32:10;;;;;;;4.33;3.93;;;16.60;99.90;;;17.00;nan;100971.09;5050029;28;20632;-67
2023/05/08 03:34:39;;;;;;;4.97;4.27;;;16.70;99.90;;;16.97;nan;100973.19;5015590;28;20615;-68
2023/05/08 03:37:06;;;;;;;4.97;3.90;;;16.60;99.90;;;16.95;nan;100973.31;5031680;28;20663;-69
2023/05/08 03:39:33;;;;;;;8.23;5.20;;;16.60;99.90;;;16.94;nan;100982.22;5048790;28;20730;-68
2023/05/08 03:42:00;;;;;;;4.93;4.43;;;16.60;99.90;;;16.95;nan;100975.94;5035397;28;20636;-68
2023/05/08 03:44:29;;;;;;;5.90;4.27;;;16.60;99.90;;;16.93;nan;100975.25;5032572;28;20628;-68
2023/05/08 03:46:57;;;;;;;6.50;4.53;;;16.60;99.90;;;16.94;nan;100973.47;5023261;28;20651;-67
2023/05/08 03:49:29;;;;;;;5.03;3.80;;;16.60;99.90;;;16.93;nan;100972.63;5049879;28;20638;-68
2023/05/08 03:51:57;;;;;;;6.57;4.53;;;16.60;99.90;;;16.93;nan;100971.78;5031180;28;20631;-67
2023/05/08 03:54:26;;;;;;;7.57;5.43;;;16.60;99.90;;;16.90;nan;100969.44;5049340;28;20635;-68
2023/05/08 03:56:54;;;;;;;5.07;4.40;;;16.60;99.90;;;16.92;nan;100965.69;5046992;28;20659;-68
2023/05/08 03:59:32;;;;;;;4.63;3.90;;;16.60;99.90;;;16.88;nan;100972.25;5034740;28;20651;-70
2023/05/08 04:02:42;;;;;;;5.10;3.97;;;16.60;99.90;;;16.87;nan;100970.56;5035582;28;20696;-67
2023/05/08 04:05:23;;;;;;;7.30;4.67;;;16.60;99.90;;;16.89;nan;100976.53;5067030;28;21233;-68
2023/05/08 04:08:01;;;;;;;7.57;5.70;;;16.60;99.90;;;16.87;nan;100980.25;5052148;28;20635;-67
2023/05/08 04:10:37;;;;;;;7.00;5.37;;;16.50;99.90;;;16.84;nan;100986.69;5052295;28;20634;-67
2023/05/08 04:13:16;;;;;;;8.10;5.60;;;16.60;99.90;;;16.81;nan;100989.59;5062985;28;21023;-67
2023/05/08 04:15:51;;;;;;;7.53;5.53;;;16.50;99.90;;;16.76;nan;100983.91;5035604;28;20643;-68
2023/05/08 04:18:24;;;;;;;6.93;5.40;;;16.50;99.90;;;16.76;nan;100994.44;5035419;28;20634;-68
2023/05/08 04:20:55;;;;;;;7.17;5.70;;;16.50;99.90;;;16.75;nan;100986.69;5035934;28;20631;-68
2023/05/08 04:23:22;;;;;;;6.57;5.40;;;16.40;99.90;;;16.68;nan;100993.47;5034769;28;20635;-68
2023/05/08 04:25:51;;;;;;;6.23;5.20;;;16.40;99.90;;;16.67;nan;100995.31;5036243;28;21233;-67
2023/05/08 04:28:20;;;;;;;8.63;6.00;;;16.40;99.90;;;16.62;nan;100997.50;5052660;28;20623;-67
2023/05/08 04:30:47;;;;;;;5.43;4.77;;;16.30;99.90;;;16.60;nan;100995.97;5053501;28;20636;-68
2023/05/08 04:33:17;;;;;;;9.47;6.03;;;16.30;99.90;;;16.61;nan;100995.84;5051583;28;20642;-67
2023/05/08 04:35:45;;;;;;;7.00;5.13;;;16.30;99.90;;;16.60;nan;101001.25;5036335;28;20708;-68
2023/05/08 04:38:12;;;;;;;6.90;5.13;;;16.30;99.90;;;16.60;nan;101004.72;5052223;28;20674;-68
2023/05/08 04:40:39;;;;;;;9.93;6.00;;;16.30;99.90;;;16.59;nan;101008.31;5035106;28;21300;-67
2023/05/08 04:43:06;;;;;;;7.70;5.60;;;16.30;99.90;;;16.55;nan;101006.09;5053634;28;21190;-68
2023/05/08 04:45:33;;;;;;;8.30;4.90;;;16.20;99.90;;;16.54;nan;101007.94;5052836;28;21009;-68
2023/05/08 04:48:00;;;;;;;6.37;4.50;;;16.20;99.90;;;16.55;nan;101006.94;5034925;28;20638;-68
2023/05/08 04:50:27;;;;;;;6.57;4.70;;;16.20;99.90;;;16.56;nan;101003.34;5034776;28;20646;-66
2023/05/08 04:52:54;;;;;;;8.40;4.90;;;16.20;99.90;;;16.57;nan;101005.00;5054551;28;20639;-69
2023/05/08 04:55:21;;;;;;;6.30;4.03;;;16.20;99.90;;;16.61;nan;101013.47;5051279;28;20659;-68
2023/05/08 04:57:48;;;;;;;6.67;4.90;;;16.30;99.90;;;16.60;nan;101007.34;5050948;28;20716;-67
2023/05/08 05:00:15;;;;;;;5.70;4.10;;;16.30;99.90;;;16.61;nan;101014.28;5051320;28;21066;-70
2023/05/08 05:02:44;;;;;;;8.00;5.87;;;16.30;99.90;;;16.60;nan;101020.53;5049149;28;20723;-67
2023/05/08 05:05:11;;;;;;;7.70;5.20;;;16.30;99.90;;;16.61;nan;101010.84;5051798;28;20632;-68
2023/05/08 05:07:39;;;;;;;10.00;5.00;;;16.30;99.90;;;16.58;nan;101021.63;5048748;28;20635;-68
2023/05/08 05:10:06;;;;;;;7.83;4.90;;;16.30;99.90;;;16.56;nan;101024.41;5050406;28;21277;-68
2023/05/08 05:12:33;;;;;;;8.90;5.50;;;16.30;99.90;;;16.55;nan;101028.00;5033496;28;20643;-67
2023/05/08 05:15:00;;;;;;;7.07;5.33;;;16.30;99.90;;;16.54;nan;101033.44;5050550;28;20635;-68
2023/05/08 05:17:27;;;;;;;7.13;5.50;;;16.30;99.90;;;16.50;nan;101030.25;5052961;28;20622;-67
2023/05/08 05:19:54;;;;;;;7.40;5.00;;;16.20;99.90;;;16.47;nan;101030.47;5050484;28;20678;-68
2023/05/08 05:22:21;;;;;;;8.40;4.90;;;16.20;99.90;;;16.46;nan;101033.25;5051043;28;21275;-68
2023/05/08 05:24:48;;;;;;;6.43;5.17;;;16.10;99.90;;;16.47;nan;101034.91;5050461;28;21019;-67
2023/05/08 05:27:15;;;;;;;7.73;4.70;;;16.20;99.90;;;16.47;nan;101035.75;5061739;28;20727;-69
2023/05/08 05:29:42;;;;;;;6.20;4.47;;;16.20;99.90;;;16.46;nan;101036.69;5046423;28;21144;-68
2023/05/08 05:32:11;;;;;;;6.17;4.73;;;16.20;99.90;;;16.48;nan;101045.31;5041109;28;20637;-67
2023/05/08 05:34:38;;;;;;;6.57;4.43;;;16.20;99.90;;;16.49;nan;101044.34;5051046;28;20638;-67
2023/05/08 05:37:05;;;;;;;6.03;3.93;;;16.20;99.90;;;16.54;nan;101043.97;5051403;28;20651;-68
2023/05/08 05:39:32;;;;;;;7.13;5.90;;;16.20;99.90;;;16.48;nan;101047.13;5051954;28;20652;-68
2023/05/08 05:41:59;;;;;;;6.23;4.60;;;16.20;99.90;;;16.49;nan;101049.59;5032792;28;20631;-68
2023/05/08 05:44:26;;;;;;;7.47;4.50;;;16.20;99.90;;;16.52;nan;101052.00;5051584;28;20630;-68
2023/05/08 05:46:53;;;;;;;5.67;4.77;;;16.20;99.90;;;16.56;nan;101057.81;5050900;28;20660;-69
2023/05/08 05:49:21;;;;;;;5.37;4.20;;;16.30;99.90;;;16.60;nan;101052.16;5052038;28;20669;-67
2023/05/08 05:51:48;;;;;;;5.60;4.20;;;16.30;99.90;;;16.64;nan;101056.16;5031895;28;21233;-67
2023/05/08 05:54:15;;;;;;;5.40;4.47;;;16.30;99.90;;;16.67;nan;101049.78;5055091;28;21001;-66
2023/05/08 05:56:41;;;;;;;6.70;5.30;;;16.40;99.90;;;16.67;nan;101057.69;5050370;28;20690;-67
2023/05/08 05:59:08;;;;;;;6.80;4.73;;;16.40;99.90;;;16.72;nan;101063.34;5050396;28;20673;-67
2023/05/08 06:01:35;;;;;;;6.30;5.10;;;16.40;99.90;;;16.72;nan;101055.44;5051960;28;21073;-68
2023/05/08 06:04:03;;;;;;;6.13;5.23;;;16.40;99.90;;;16.70;nan;101066.13;5050267;28;21049;-69
2023/05/08 06:06:30;;;;;;;5.37;4.87;;;16.40;99.90;;;16.73;nan;101068.50;5050412;28;21246;-68
2023/05/08 06:09:00;;;;;;;4.77;3.60;;;16.40;99.90;;;16.75;nan;101066.56;5050688;28;20615;-69
2023/05/08 06:11:27;;;;;;;4.40;4.00;;;16.50;99.90;;;16.76;nan;101067.41;5050213;28;20618;-70
2023/05/08 06:13:54;;;;;;;6.43;4.83;;;16.50;99.90;;;16.77;nan;101062.00;5050016;28;20638;-67
2023/05/08 06:16:21;;;;;;;5.00;4.47;;;16.50;99.90;;;16.77;nan;101064.63;5050917;28;20655;-66
2023/05/08 06:18:51;;;;;;;8.50;5.10;;;16.50;99.90;;;16.77;nan;101066.41;5049900;28;21046;-69
2023/05/08 06:21:18;;;;;;;7.87;5.87;;;16.50;99.90;;;16.81;nan;101071.28;5033311;28;20678;-67
2023/05/08 06:23:45;;;;;;;6.33;5.30;;;16.50;99.90;;;16.84;nan;101060.47;5046493;28;21202;-68
2023/05/08 06:26:12;;;;;;;7.33;4.37;;;16.60;99.90;;;16.91;nan;101071.25;5055535;28;21264;-67
2023/05/08 06:28:39;;;;;;;7.80;5.27;;;16.60;99.90;;;16.93;nan;101064.03;5042266;28;20643;-68
2023/05/08 06:31:06;;;;;;;6.00;4.70;;;16.60;99.90;;;16.91;nan;101074.72;5050102;28;20670;-71
2023/05/08 06:33:33;;;;;;;6.43;5.47;;;16.60;99.90;;;16.89;nan;101074.03;5032398;28;20662;-67
2023/05/08 06:36:00;;;;;;;8.50;5.20;;;16.60;99.90;;;16.88;nan;101067.13;5050089;28;20655;-67
2023/05/08 06:38:27;;;;;;;8.83;6.10;;;16.60;99.90;;;16.87;nan;101075.16;5048752;28;20632;-67
2023/05/08 06:40:54;;;;;;;8.20;6.13;;;16.60;99.90;;;16.85;nan;101067.38;5051151;28;21226;-67
2023/05/08 06:43:21;;;;;;;9.57;6.67;;;16.60;99.90;;;16.85;nan;101075.28;5049765;28;20628;-67
2023/05/08 06:45:48;;;;;;;8.83;5.90;;;16.50;99.90;;;16.85;nan;101066.56;5051008;28;20705;-66
2023/05/08 06:48:15;;;;;;;6.20;5.27;;;16.50;99.90;;;16.84;nan;101071.00;5031934;28;20627;-67
2023/05/08 06:50:42;;;;;;;8.00;5.33;;;16.60;99.90;;;16.86;nan;101069.06;5032003;28;20639;-67
2023/05/08 06:53:09;;;;;;;7.17;4.33;;;16.60;99.90;;;16.88;nan;101077.66;5050198;28;20644;-68
2023/05/08 06:55:36;;;;;;;6.37;5.50;;;16.60;99.90;;;16.89;nan;101081.09;5050025;28;20663;-67
2023/05/08 06:58:03;;;;;;;7.43;4.97;;;16.60;99.90;;;16.84;nan;101081.56;5050491;28;20651;-67
2023/05/08 07:00:30;;;;;;;4.87;4.37;;;16.60;99.90;;;16.86;nan;101078.78;5048945;28;20730;-67
2023/05/08 07:02:57;;;;;;;6.27;4.83;;;16.60;99.90;;;16.84;nan;101078.06;5050935;28;20627;-67
2023/05/08 07:05:24;;;;;;;7.90;5.83;;;16.60;99.90;;;16.77;nan;101079.59;5048438;28;20656;-66
2023/05/08 07:07:53;;;;;;;6.67;5.20;;;16.50;99.90;;;16.72;nan;101076.53;5048259;28;20635;-66
2023/05/08 07:10:21;;;;;;;4.03;3.63;;;16.40;99.90;;;16.71;nan;101081.00;5050283;28;20638;-68
2023/05/08 07:12:48;;;;;;;7.40;6.20;;;16.40;99.90;;;16.72;nan;101087.06;5032120;28;20632;-67
2023/05/08 07:15:16;;;;;;;5.50;4.60;;;16.40;99.90;;;16.68;nan;101083.91;5050525;28;20635;-67
2023/05/08 07:17:51;;;;;;;5.80;5.20;;;16.40;99.90;;;16.63;nan;101087.94;5050129;28;20645;-68
2023/05/08 07:20:19;;;;;;;8.73;5.80;;;16.30;99.90;;;16.68;nan;101085.69;5049567;28;20655;-69
2023/05/08 07:22:46;;;;;;;5.30;4.70;;;16.40;99.90;;;16.64;nan;101085.16;5049819;28;20689;-68
2023/05/08 07:25:13;;;;;;;5.60;4.63;;;16.30;99.90;;;16.63;nan;101085.28;5049515;28;21235;-68
2023/05/08 07:27:40;;;;;;;5.33;4.83;;;16.30;99.90;;;16.63;nan;101083.47;5049773;28;20636;-67
2023/05/08 07:30:08;;;;;;;7.53;5.47;;;16.30;99.90;;;16.66;nan;101087.63;5032006;28;20630;-70
2023/05/08 07:32:37;;;;;;;5.93;5.00;;;16.30;99.90;;;16.65;nan;101085.97;5049776;28;20632;-67
2023/05/08 07:35:08;;;;;;;6.43;4.87;;;16.40;99.90;;;16.67;nan;101100.69;5046224;28;20646;-67
2023/05/08 07:37:40;;;;;;;5.20;4.70;;;16.40;99.90;;;16.67;nan;101095.41;5038484;28;20725;-68
2023/05/08 07:40:07;;;;;;;6.73;5.00;;;16.40;99.90;;;16.69;nan;101096.13;5045633;28;20659;-66
2023/05/08 07:42:41;;;;;;;5.57;4.77;;;16.40;99.90;;;16.68;nan;101093.59;5048225;28;21004;-68
2023/05/08 07:45:10;;;;;;;6.00;5.23;;;16.40;99.90;;;16.69;nan;101093.47;5052553;28;20631;-66
2023/05/08 07:47:47;;;;;;;7.00;4.70;;;16.40;99.90;;;16.74;nan;101098.31;5048312;28;20986;-68
2023/05/08 07:50:15;;;;;;;6.13;4.67;;;16.40;99.90;;;16.74;nan;101095.66;5034631;28;20645;-66
2023/05/08 07:52:42;;;;;;;5.10;4.30;;;16.50;99.90;;;16.74;nan;101100.94;5035240;28;20629;-67
2023/05/08 07:55:09;;;;;;;6.30;5.03;;;16.50;99.90;;;16.77;nan;101104.16;5053813;28;20631;-67
2023/05/08 07:57:38;;;;;;;4.80;4.30;;;16.50;99.90;;;16.75;nan;101099.97;5053092;28;20632;-67
2023/05/08 08:00:07;;;;;;;6.80;4.40;;;16.50;99.90;;;16.79;nan;101101.38;5054359;28;20744;-67
2023/05/08 08:02:34;;;;;;;7.70;5.40;;;16.50;99.90;;;16.86;nan;101107.75;5053349;28;21250;-69
2023/05/08 08:05:01;;;;;;;7.67;4.67;;;16.50;99.90;;;16.86;nan;101113.88;5052794;28;20646;-65
2023/05/08 08:07:28;;;;;;;6.07;5.00;;;16.60;99.90;;;16.79;nan;101102.22;5052697;28;20639;-70
2023/05/08 08:09:55;;;;;;;4.87;4.17;;;16.60;99.90;;;16.78;nan;101113.72;5052489;28;20635;-67
2023/05/08 08:12:22;;;;;;;5.47;4.90;;;16.50;99.90;;;16.76;nan;101114.84;5052654;28;20635;-67
2023/05/08 08:14:49;;;;;;;5.90;5.00;;;16.50;99.90;;;16.73;nan;101117.75;5054099;28;20636;-66
2023/05/08 08:17:16;;;;;;;6.20;4.93;;;16.50;99.90;;;16.69;nan;101111.94;5052873;28;20659;-67
2023/05/08 08:19:43;;;;;;;5.93;5.10;;;16.40;99.90;;;16.67;nan;101113.88;5053075;28;20639;-67
2023/05/08 08:22:10;;;;;;;8.83;5.43;;;16.40;99.90;;;16.59;nan;101113.69;5036017;28;20635;-67
2023/05/08 08:24:37;;;;;;;5.93;4.20;;;16.30;99.90;;;16.56;nan;101118.41;5052425;28;20696;-67
2023/05/08 08:27:04;;;;;;;6.57;5.33;;;16.30;99.90;;;16.54;nan;101115.09;5034602;28;21315;-66
2023/05/08 08:29:34;;;;;;;8.17;5.00;;;16.20;99.90;;;16.55;nan;101114.94;5051788;28;20647;-65
2023/05/08 08:32:02;;;;;;;6.23;5.00;;;16.20;99.90;;;16.63;nan;101119.53;5035153;28;20676;-66
2023/05/08 08:34:29;;;;;;;6.20;4.73;;;16.30;99.90;;;16.67;nan;101120.94;5051457;28;20635;-69
2023/05/08 08:36:56;;;;;;;8.17;5.40;;;16.30;99.90;;;16.67;nan;101124.41;5052449;28;20655;-66
2023/05/08 08:39:26;;;;;;;7.43;4.20;;;16.40;99.90;;;16.73;nan;101121.22;5052402;28;20627;-69
2023/05/08 08:41:53;;;;;;;4.33;3.93;;;16.40;99.90;;;16.82;nan;101116.91;5044939;28;20659;-68
2023/05/08 08:44:19;;;;;;;5.30;4.80;;;16.50;99.90;;;16.83;nan;101119.41;5053145;28;20614;-67
2023/05/08 08:46:51;;;;;;;6.50;4.40;;;16.50;99.90;;;16.91;nan;101118.69;5051539;28;21038;-67
2023/05/08 08:49:29;;;;;;;11.93;4.80;;;16.60;99.90;;;16.93;nan;101122.88;5053296;28;20666;-67
2023/05/08 08:52:18;;;;;;;8.43;5.27;;;16.60;99.90;;;16.94;nan;101116.63;5051658;28;20662;-66
2023/05/08 08:54:48;;;;;;;3.40;3.10;;;16.60;99.90;;;16.95;nan;101120.94;5034489;28;20650;-67
2023/05/08 08:57:15;;;;;;;4.57;4.13;;;16.70;99.90;;;16.97;nan;101107.63;5051326;28;20697;-67
2023/05/08 08:59:44;;;;;;;6.23;4.80;;;16.70;99.90;;;17.03;nan;101115.81;5034885;28;20631;-68
2023/05/08 09:02:16;;;;;;;4.27;3.80;;;16.70;99.90;;;17.17;nan;101124.22;5050595;28;20646;-67
2023/05/08 09:04:43;;;;;;;5.20;4.40;;;16.90;99.90;;;17.29;nan;101117.84;5048691;28;20695;-67
2023/05/08 09:07:11;;;;;;;5.20;4.03;;;16.90;99.90;;;17.41;nan;101133.38;5029742;22;21347;-67
2023/05/08 09:09:43;;;;;;;6.37;4.90;;;17.10;99.90;;;17.48;nan;101126.53;5043077;28;21162;-67
2023/05/08 09:12:12;;;;;;;4.57;3.77;;;17.20;99.90;;;17.52;nan;101124.50;5051668;28;20997;-67
2023/05/08 09:14:39;;;;;;;5.20;4.20;;;17.20;99.90;;;17.49;nan;101130.84;5053255;28;20627;-66
2023/05/08 09:17:06;;;;;;;6.57;4.93;;;17.20;99.90;;;17.50;nan;101131.72;5051290;28;21258;-66
2023/05/08 09:19:34;;;;;;;6.97;4.77;;;17.20;99.90;;;17.52;nan;101135.91;5050734;28;20635;-66
2023/05/08 09:22:03;;;;;;;7.73;5.40;;;17.20;99.90;;;17.58;nan;101135.31;5016727;28;20663;-66
2023/05/08 09:24:57;;;;;;;6.97;5.40;;;17.30;99.90;;;17.59;nan;101126.41;5044304;28;20620;-66
2023/05/08 09:27:27;;;;;;;6.77;4.27;;;17.30;99.90;;;17.75;nan;101128.44;5052841;28;20635;-67
2023/05/08 09:30:13;;;;;;;8.03;4.37;;;17.40;99.90;;;17.87;nan;101135.22;5053561;28;20669;-68
2023/05/08 09:32:42;;;;;;;6.57;4.83;;;17.50;99.90;;;17.95;nan;101131.84;5039239;28;20737;-66
2023/05/08 09:35:11;;;;;;;6.47;4.37;;;17.60;99.90;;;18.00;nan;101126.94;5051324;28;20635;-66
2023/05/08 09:37:40;;;;;;;3.50;3.20;;;17.70;99.90;;;17.98;nan;101139.47;5050708;28;21502;-66
2023/05/08 09:40:21;;;;;;;7.67;5.20;;;17.70;99.90;;;17.98;nan;101136.81;5050379;28;20635;-65
2023/05/08 09:42:49;;;;;;;5.30;4.50;;;17.60;99.90;;;18.03;nan;101146.00;5050006;28;20624;-68
2023/05/08 09:45:31;;;;;;;6.57;4.17;;;17.70;99.90;;;17.97;nan;101146.59;5042243;28;20632;-67
2023/05/08 09:47:58;;;;;;;5.17;4.47;;;17.70;99.90;;;17.91;nan;101146.34;5049713;28;20631;-66
2023/05/08 09:50:26;;;;;;;5.23;4.53;;;17.60;99.90;;;17.90;nan;101147.28;5033026;28;21179;-66
2023/05/08 09:52:53;;;;;;;6.47;5.03;;;17.60;99.90;;;17.88;nan;101142.16;5047374;28;20990;-67
2023/05/08 09:55:20;;;;;;;6.50;5.20;;;17.60;99.90;;;17.89;nan;101143.00;5045148;28;20632;-66
2023/05/08 09:57:55;;;;;;;5.63;4.80;;;17.60;99.90;;;17.91;nan;101141.84;5048788;28;21036;-67
2023/05/08 10:00:27;;;;;;;5.23;4.43;;;17.60;99.90;;;17.92;nan;101143.53;5046458;28;20651;-67
2023/05/08 10:02:58;;;;;;;5.40;4.87;;;17.60;99.90;;;18.01;nan;101141.84;5031675;28;20676;-66
2023/05/08 10:05:30;;;;;;;6.33;5.37;;;17.70;99.90;;;18.10;nan;101147.06;5051608;28;21377;-67
2023/05/08 10:08:17;;;;;;;6.83;5.30;;;17.80;99.90;;;18.19;nan;101148.81;5051104;28;20635;-66
2023/05/08 10:10:44;;;;;;;6.40;4.17;;;17.80;99.90;;;18.23;nan;101149.38;5043044;28;20630;-66
2023/05/08 10:13:11;;;;;;;5.73;4.60;;;17.90;99.90;;;18.20;nan;101150.50;5050542;28;21146;-66
2023/05/08 10:15:42;;;;;;;7.93;6.00;;;17.90;99.90;;;18.14;nan;101150.25;5051226;28;20612;-66
2023/05/08 10:18:12;;;;;;;7.87;5.07;;;17.80;99.90;;;18.11;nan;101154.00;5048514;28;21239;-67
2023/05/08 10:20:41;;;;;;;3.97;3.60;;;17.80;99.90;;;18.16;nan;101150.94;5049320;28;20694;-66
2023/05/08 10:23:14;;;;;;;7.73;5.50;;;17.80;99.90;;;18.15;nan;101154.53;5050337;28;20632;-66
2023/05/08 10:25:47;;;;;;;8.70;6.70;;;17.80;99.90;;;18.07;nan;101151.81;5047054;28;21245;-66
2023/05/08 10:28:36;;;;;;;6.60;5.17;;;17.70;99.90;;;18.04;nan;101147.66;5042122;28;20673;-66
2023/05/08 10:31:06;;;;;;;5.27;4.60;;;17.70;99.90;;;18.06;nan;101152.81;5050936;28;20631;-66
2023/05/08 10:33:34;;;;;;;6.47;5.07;;;17.70;99.90;;;18.08;nan;101142.94;5031718;28;21191;-66
2023/05/08 10:36:01;;;;;;;7.97;5.90;;;17.70;99.90;;;18.11;nan;101150.53;5050634;28;20651;-66
2023/05/08 10:38:30;;;;;;;7.53;6.03;;;17.80;99.90;;;17.99;nan;101144.63;5048516;28;20640;-66
2023/05/08 10:41:00;;;;;;;8.03;6.30;;;17.70;99.90;;;17.94;nan;101146.03;5049729;28;20663;-66